sensor_id;sensor_type;location;lat;lon;timestamp;P1;durP1;ratioP1;P2;durP2;ratioP2
14048;SDS011;7099;53.922;10.728;2022-09-09T00:02:44;34.70;;;19.93;;
14048;SDS011;7099;53.922;10.728;2022-09-09T00:07:43;46.33;;;21.00;;
14048;SDS011;7099;53.922;10.728;2022-09-09T00:12:22;44.90;;;21.93;;
14048;SDS011;7099;53.922;10.728;2022-09-09T00:16:57;43.30;;;21.90;;
14048;SDS011;7099;53.922;10.728;2022-09-09T00:21:38;40.80;;;21.47;;
14048;SDS011;7099;53.922;10.728;2022-09-09T00:26:22;42.83;;;21.77;;
14048;SDS011;7099;53.922;10.728;2022-09-09T00:31:11;47.90;;;23.63;;
14048;SDS011;7099;53.922;10.728;2022-09-09T00:35:52;43.83;;;22.00;;
14048;SDS011;7099;53.922;10.728;2022-09-09T00:41:09;42.80;;;21.00;;
14048;SDS011;7099;53.922;10.728;2022-09-09T00:45:19;51.60;;;23.97;;
14048;SDS011;7099;53.922;10.728;2022-09-09T00:55:03;55.97;;;24.90;;
14048;SDS011;7099;53.922;10.728;2022-09-09T01:00:24;57.00;;;25.40;;
14048;SDS011;7099;53.922;10.728;2022-09-09T01:04:59;54.47;;;25.80;;
14048;SDS011;7099;53.922;10.728;2022-09-09T01:09:42;61.73;;;27.53;;
14048;SDS011;7099;53.922;10.728;2022-09-09T01:18:59;51.20;;;23.93;;
14048;SDS011;7099;53.922;10.728;2022-09-09T01:28:30;55.90;;;26.07;;
14048;SDS011;7099;53.922;10.728;2022-09-09T01:32:57;50.60;;;25.20;;
14048;SDS011;7099;53.922;10.728;2022-09-09T01:37:24;53.33;;;25.40;;
14048;SDS011;7099;53.922;10.728;2022-09-09T01:41:50;43.58;;;23.13;;
14048;SDS011;7099;53.922;10.728;2022-09-09T01:46:15;43.70;;;24.47;;
14048;SDS011;7099;53.922;10.728;2022-09-09T01:50:42;48.90;;;25.47;;
14048;SDS011;7099;53.922;10.728;2022-09-09T01:55:07;42.40;;;24.03;;
14048;SDS011;7099;53.922;10.728;2022-09-09T01:59:39;45.53;;;24.10;;
14048;SDS011;7099;53.922;10.728;2022-09-09T02:04:33;38.40;;;22.97;;
14048;SDS011;7099;53.922;10.728;2022-09-09T02:09:12;37.33;;;22.63;;
14048;SDS011;7099;53.922;10.728;2022-09-09T02:13:40;38.40;;;22.27;;
14048;SDS011;7099;53.922;10.728;2022-09-09T02:18:08;34.13;;;20.53;;
14048;SDS011;7099;53.922;10.728;2022-09-09T02:22:37;28.50;;;18.57;;
14048;SDS011;7099;53.922;10.728;2022-09-09T02:27:07;29.90;;;18.07;;
14048;SDS011;7099;53.922;10.728;2022-09-09T02:31:34;27.50;;;17.97;;
14048;SDS011;7099;53.922;10.728;2022-09-09T02:36:00;23.50;;;16.53;;
14048;SDS011;7099;53.922;10.728;2022-09-09T02:40:28;29.60;;;18.87;;
14048;SDS011;7099;53.922;10.728;2022-09-09T02:44:53;35.83;;;18.53;;
14048;SDS011;7099;53.922;10.728;2022-09-09T02:49:21;34.60;;;20.20;;
14048;SDS011;7099;53.922;10.728;2022-09-09T02:58:55;29.53;;;18.40;;
14048;SDS011;7099;53.922;10.728;2022-09-09T03:03:21;37.37;;;19.13;;
14048;SDS011;7099;53.922;10.728;2022-09-09T03:07:46;31.20;;;19.70;;
14048;SDS011;7099;53.922;10.728;2022-09-09T03:12:12;34.13;;;21.50;;
14048;SDS011;7099;53.922;10.728;2022-09-09T03:16:37;32.97;;;19.83;;
14048;SDS011;7099;53.922;10.728;2022-09-09T03:21:03;33.93;;;19.50;;
14048;SDS011;7099;53.922;10.728;2022-09-09T03:25:28;37.63;;;18.87;;
14048;SDS011;7099;53.922;10.728;2022-09-09T03:29:53;32.03;;;19.20;;
14048;SDS011;7099;53.922;10.728;2022-09-09T03:34:19;29.97;;;18.60;;
14048;SDS011;7099;53.922;10.728;2022-09-09T03:38:44;30.97;;;17.73;;
14048;SDS011;7099;53.922;10.728;2022-09-09T03:43:09;36.77;;;19.77;;
14048;SDS011;7099;53.922;10.728;2022-09-09T03:47:34;30.00;;;19.30;;
14048;SDS011;7099;53.922;10.728;2022-09-09T03:51:59;28.77;;;18.60;;
14048;SDS011;7099;53.922;10.728;2022-09-09T03:56:25;31.57;;;18.20;;
14048;SDS011;7099;53.922;10.728;2022-09-09T04:00:57;27.87;;;17.07;;
14048;SDS011;7099;53.922;10.728;2022-09-09T04:05:25;24.47;;;16.60;;
14048;SDS011;7099;53.922;10.728;2022-09-09T04:09:51;29.97;;;17.83;;
14048;SDS011;7099;53.922;10.728;2022-09-09T04:14:17;24.07;;;16.30;;
14048;SDS011;7099;53.922;10.728;2022-09-09T04:18:42;24.77;;;16.63;;
14048;SDS011;7099;53.922;10.728;2022-09-09T04:23:08;27.80;;;16.67;;
14048;SDS011;7099;53.922;10.728;2022-09-09T04:27:33;29.50;;;17.00;;
14048;SDS011;7099;53.922;10.728;2022-09-09T04:31:59;30.23;;;16.13;;
14048;SDS011;7099;53.922;10.728;2022-09-09T04:36:24;26.47;;;16.93;;
14048;SDS011;7099;53.922;10.728;2022-09-09T04:40:50;26.10;;;16.60;;
14048;SDS011;7099;53.922;10.728;2022-09-09T04:45:18;26.90;;;17.83;;
14048;SDS011;7099;53.922;10.728;2022-09-09T04:49:44;25.73;;;15.93;;
14048;SDS011;7099;53.922;10.728;2022-09-09T04:54:09;30.43;;;18.23;;
14048;SDS011;7099;53.922;10.728;2022-09-09T04:58:36;33.10;;;17.87;;
14048;SDS011;7099;53.922;10.728;2022-09-09T05:03:03;32.97;;;18.27;;
14048;SDS011;7099;53.922;10.728;2022-09-09T05:07:34;29.57;;;18.03;;
14048;SDS011;7099;53.922;10.728;2022-09-09T05:12:00;24.63;;;16.67;;
14048;SDS011;7099;53.922;10.728;2022-09-09T05:16:27;26.20;;;17.47;;
14048;SDS011;7099;53.922;10.728;2022-09-09T05:20:52;28.80;;;18.30;;
14048;SDS011;7099;53.922;10.728;2022-09-09T05:25:24;29.80;;;17.40;;
14048;SDS011;7099;53.922;10.728;2022-09-09T05:29:50;28.57;;;18.27;;
14048;SDS011;7099;53.922;10.728;2022-09-09T05:34:15;30.97;;;19.50;;
14048;SDS011;7099;53.922;10.728;2022-09-09T05:38:41;25.73;;;16.40;;
14048;SDS011;7099;53.922;10.728;2022-09-09T05:43:07;31.17;;;18.33;;
14048;SDS011;7099;53.922;10.728;2022-09-09T05:47:33;28.77;;;17.90;;
14048;SDS011;7099;53.922;10.728;2022-09-09T05:51:59;24.50;;;16.67;;
14048;SDS011;7099;53.922;10.728;2022-09-09T05:56:27;27.43;;;17.57;;
14048;SDS011;7099;53.922;10.728;2022-09-09T06:00:59;25.13;;;17.10;;
14048;SDS011;7099;53.922;10.728;2022-09-09T06:05:31;25.73;;;17.20;;
14048;SDS011;7099;53.922;10.728;2022-09-09T06:09:57;28.10;;;18.20;;
14048;SDS011;7099;53.922;10.728;2022-09-09T06:14:23;21.30;;;15.27;;
14048;SDS011;7099;53.922;10.728;2022-09-09T06:18:49;27.83;;;17.57;;
14048;SDS011;7099;53.922;10.728;2022-09-09T06:23:16;29.73;;;16.50;;
14048;SDS011;7099;53.922;10.728;2022-09-09T06:27:41;24.13;;;15.50;;
14048;SDS011;7099;53.922;10.728;2022-09-09T06:32:07;24.63;;;17.23;;
14048;SDS011;7099;53.922;10.728;2022-09-09T06:36:34;24.60;;;16.30;;
14048;SDS011;7099;53.922;10.728;2022-09-09T06:41:02;22.13;;;15.50;;
14048;SDS011;7099;53.922;10.728;2022-09-09T06:45:30;24.90;;;15.80;;
14048;SDS011;7099;53.922;10.728;2022-09-09T06:49:55;21.53;;;15.33;;
14048;SDS011;7099;53.922;10.728;2022-09-09T06:54:21;22.53;;;15.50;;
14048;SDS011;7099;53.922;10.728;2022-09-09T06:58:48;23.77;;;15.40;;
14048;SDS011;7099;53.922;10.728;2022-09-09T07:03:16;22.17;;;14.40;;
14048;SDS011;7099;53.922;10.728;2022-09-09T07:07:41;23.00;;;14.03;;
14048;SDS011;7099;53.922;10.728;2022-09-09T07:12:07;22.97;;;14.47;;
14048;SDS011;7099;53.922;10.728;2022-09-09T07:16:33;22.00;;;13.80;;
14048;SDS011;7099;53.922;10.728;2022-09-09T07:21:01;16.23;;;12.20;;
14048;SDS011;7099;53.922;10.728;2022-09-09T07:25:28;18.17;;;13.70;;
14048;SDS011;7099;53.922;10.728;2022-09-09T07:29:54;18.60;;;13.07;;
14048;SDS011;7099;53.922;10.728;2022-09-09T07:34:20;19.30;;;11.70;;
14048;SDS011;7099;53.922;10.728;2022-09-09T07:38:46;19.23;;;11.33;;
14048;SDS011;7099;53.922;10.728;2022-09-09T07:43:15;15.80;;;11.60;;
14048;SDS011;7099;53.922;10.728;2022-09-09T07:47:43;15.50;;;10.40;;
14048;SDS011;7099;53.922;10.728;2022-09-09T07:52:09;14.40;;;9.53;;
14048;SDS011;7099;53.922;10.728;2022-09-09T07:56:38;11.57;;;8.80;;
14048;SDS011;7099;53.922;10.728;2022-09-09T08:01:17;11.93;;;7.70;;
14048;SDS011;7099;53.922;10.728;2022-09-09T08:05:49;9.50;;;7.43;;
14048;SDS011;7099;53.922;10.728;2022-09-09T08:10:14;7.33;;;6.30;;
14048;SDS011;7099;53.922;10.728;2022-09-09T08:14:40;8.23;;;6.40;;
14048;SDS011;7099;53.922;10.728;2022-09-09T08:19:06;8.63;;;5.40;;
14048;SDS011;7099;53.922;10.728;2022-09-09T08:23:32;8.37;;;5.77;;
14048;SDS011;7099;53.922;10.728;2022-09-09T08:27:58;8.00;;;5.10;;
14048;SDS011;7099;53.922;10.728;2022-09-09T08:32:23;9.90;;;5.53;;
14048;SDS011;7099;53.922;10.728;2022-09-09T08:36:51;7.13;;;5.20;;
14048;SDS011;7099;53.922;10.728;2022-09-09T08:46:17;8.57;;;5.67;;
14048;SDS011;7099;53.922;10.728;2022-09-09T08:51:10;7.93;;;5.07;;
14048;SDS011;7099;53.922;10.728;2022-09-09T08:55:41;5.27;;;4.67;;
14048;SDS011;7099;53.922;10.728;2022-09-09T09:00:23;6.50;;;4.50;;
14048;SDS011;7099;53.922;10.728;2022-09-09T09:05:15;5.80;;;4.70;;
14048;SDS011;7099;53.922;10.728;2022-09-09T09:10:17;6.83;;;5.17;;
14048;SDS011;7099;53.922;10.728;2022-09-09T09:15:17;5.40;;;4.30;;
14048;SDS011;7099;53.922;10.728;2022-09-09T09:19:47;7.10;;;4.50;;
14048;SDS011;7099;53.922;10.728;2022-09-09T09:24:40;4.87;;;4.37;;
14048;SDS011;7099;53.922;10.728;2022-09-09T09:29:10;6.63;;;4.20;;
14048;SDS011;7099;53.922;10.728;2022-09-09T09:38:18;6.22;;;4.30;;
14048;SDS011;7099;53.922;10.728;2022-09-09T09:43:18;4.93;;;4.40;;
14048;SDS011;7099;53.922;10.728;2022-09-09T09:48:06;6.60;;;4.73;;
14048;SDS011;7099;53.922;10.728;2022-09-09T09:52:37;5.63;;;3.97;;
14048;SDS011;7099;53.922;10.728;2022-09-09T09:57:16;5.50;;;3.63;;
14048;SDS011;7099;53.922;10.728;2022-09-09T10:01:42;7.23;;;3.70;;
14048;SDS011;7099;53.922;10.728;2022-09-09T10:06:08;5.40;;;3.17;;
14048;SDS011;7099;53.922;10.728;2022-09-09T10:10:37;11.90;;;3.28;;
14048;SDS011;7099;53.922;10.728;2022-09-09T10:15:42;7.20;;;3.30;;
14048;SDS011;7099;53.922;10.728;2022-09-09T10:25:34;3.63;;;2.30;;
14048;SDS011;7099;53.922;10.728;2022-09-09T10:30:41;3.17;;;2.00;;
14048;SDS011;7099;53.922;10.728;2022-09-09T10:35:34;2.83;;;2.03;;
14048;SDS011;7099;53.922;10.728;2022-09-09T10:45:17;3.73;;;2.07;;
14048;SDS011;7099;53.922;10.728;2022-09-09T10:54:45;2.73;;;1.90;;
14048;SDS011;7099;53.922;10.728;2022-09-09T10:59:46;2.90;;;1.90;;
14048;SDS011;7099;53.922;10.728;2022-09-09T11:04:28;2.03;;;1.70;;
14048;SDS011;7099;53.922;10.728;2022-09-09T11:08:59;4.07;;;1.67;;
14048;SDS011;7099;53.922;10.728;2022-09-09T11:13:34;2.97;;;1.70;;
14048;SDS011;7099;53.922;10.728;2022-09-09T11:18:11;1.80;;;1.30;;
14048;SDS011;7099;53.922;10.728;2022-09-09T11:32:20;2.37;;;1.27;;
14048;SDS011;7099;53.922;10.728;2022-09-09T11:37:17;1.77;;;1.37;;
14048;SDS011;7099;53.922;10.728;2022-09-09T11:41:53;3.33;;;1.30;;
14048;SDS011;7099;53.922;10.728;2022-09-09T11:46:19;1.20;;;1.00;;
14048;SDS011;7099;53.922;10.728;2022-09-09T11:50:56;2.43;;;1.23;;
14048;SDS011;7099;53.922;10.728;2022-09-09T11:55:28;1.57;;;1.00;;
14048;SDS011;7099;53.922;10.728;2022-09-09T11:59:57;1.57;;;0.90;;
14048;SDS011;7099;53.922;10.728;2022-09-09T12:08:51;2.20;;;1.20;;
14048;SDS011;7099;53.922;10.728;2022-09-09T12:13:24;6.77;;;1.30;;
14048;SDS011;7099;53.922;10.728;2022-09-09T12:17:52;3.70;;;1.27;;
14048;SDS011;7099;53.922;10.728;2022-09-09T12:22:27;3.47;;;1.20;;
14048;SDS011;7099;53.922;10.728;2022-09-09T12:27:18;3.40;;;1.23;;
14048;SDS011;7099;53.922;10.728;2022-09-09T12:36:35;1.90;;;1.20;;
14048;SDS011;7099;53.922;10.728;2022-09-09T12:41:03;2.93;;;1.20;;
14048;SDS011;7099;53.922;10.728;2022-09-09T12:45:30;2.00;;;1.20;;
14048;SDS011;7099;53.922;10.728;2022-09-09T12:49:57;3.17;;;1.00;;
14048;SDS011;7099;53.922;10.728;2022-09-09T12:54:23;4.30;;;1.20;;
14048;SDS011;7099;53.922;10.728;2022-09-09T12:58:50;4.30;;;1.00;;
14048;SDS011;7099;53.922;10.728;2022-09-09T13:03:17;3.77;;;1.03;;
14048;SDS011;7099;53.922;10.728;2022-09-09T13:07:47;5.30;;;1.33;;
14048;SDS011;7099;53.922;10.728;2022-09-09T13:12:14;1.60;;;0.90;;
14048;SDS011;7099;53.922;10.728;2022-09-09T13:16:53;2.00;;;0.93;;
14048;SDS011;7099;53.922;10.728;2022-09-09T13:21:31;2.87;;;0.90;;
14048;SDS011;7099;53.922;10.728;2022-09-09T13:30:55;1.93;;;1.13;;
14048;SDS011;7099;53.922;10.728;2022-09-09T13:35:27;1.90;;;0.90;;
14048;SDS011;7099;53.922;10.728;2022-09-09T13:39:53;2.70;;;1.13;;
14048;SDS011;7099;53.922;10.728;2022-09-09T13:44:23;3.63;;;1.20;;
14048;SDS011;7099;53.922;10.728;2022-09-09T13:48:59;4.10;;;1.03;;
14048;SDS011;7099;53.922;10.728;2022-09-09T13:53:45;2.40;;;0.90;;
14048;SDS011;7099;53.922;10.728;2022-09-09T13:58:15;2.80;;;1.00;;
14048;SDS011;7099;53.922;10.728;2022-09-09T14:02:44;2.03;;;1.00;;
14048;SDS011;7099;53.922;10.728;2022-09-09T14:07:13;1.30;;;0.90;;
14048;SDS011;7099;53.922;10.728;2022-09-09T14:11:41;2.10;;;1.00;;
14048;SDS011;7099;53.922;10.728;2022-09-09T14:16:07;1.50;;;0.90;;
14048;SDS011;7099;53.922;10.728;2022-09-09T14:20:32;3.30;;;0.93;;
14048;SDS011;7099;53.922;10.728;2022-09-09T14:24:58;3.37;;;1.20;;
14048;SDS011;7099;53.922;10.728;2022-09-09T14:29:23;1.97;;;1.00;;
14048;SDS011;7099;53.922;10.728;2022-09-09T14:33:49;3.93;;;1.10;;
14048;SDS011;7099;53.922;10.728;2022-09-09T14:38:15;2.97;;;1.00;;
14048;SDS011;7099;53.922;10.728;2022-09-09T14:42:42;3.25;;;0.90;;
14048;SDS011;7099;53.922;10.728;2022-09-09T14:47:08;1.57;;;1.00;;
14048;SDS011;7099;53.922;10.728;2022-09-09T14:51:33;5.80;;;1.40;;
14048;SDS011;7099;53.922;10.728;2022-09-09T14:56:05;3.27;;;1.93;;
14048;SDS011;7099;53.922;10.728;2022-09-09T15:00:33;3.50;;;1.37;;
14048;SDS011;7099;53.922;10.728;2022-09-09T15:04:58;2.70;;;1.33;;
14048;SDS011;7099;53.922;10.728;2022-09-09T15:09:24;3.33;;;1.77;;
14048;SDS011;7099;53.922;10.728;2022-09-09T15:13:50;5.10;;;1.87;;
14048;SDS011;7099;53.922;10.728;2022-09-09T15:18:19;3.70;;;1.80;;
14048;SDS011;7099;53.922;10.728;2022-09-09T15:22:46;3.13;;;1.37;;
14048;SDS011;7099;53.922;10.728;2022-09-09T15:27:11;2.93;;;1.43;;
14048;SDS011;7099;53.922;10.728;2022-09-09T15:31:36;5.67;;;1.60;;
14048;SDS011;7099;53.922;10.728;2022-09-09T15:36:11;4.00;;;1.30;;
14048;SDS011;7099;53.922;10.728;2022-09-09T15:40:39;5.68;;;1.13;;
14048;SDS011;7099;53.922;10.728;2022-09-09T15:45:04;2.37;;;1.13;;
14048;SDS011;7099;53.922;10.728;2022-09-09T15:49:30;4.93;;;1.47;;
14048;SDS011;7099;53.922;10.728;2022-09-09T15:53:57;3.08;;;1.17;;
14048;SDS011;7099;53.922;10.728;2022-09-09T15:58:22;2.63;;;1.40;;
14048;SDS011;7099;53.922;10.728;2022-09-09T16:02:48;1.90;;;1.30;;
14048;SDS011;7099;53.922;10.728;2022-09-09T16:07:14;5.60;;;1.20;;
14048;SDS011;7099;53.922;10.728;2022-09-09T16:11:39;2.23;;;1.20;;
14048;SDS011;7099;53.922;10.728;2022-09-09T16:16:05;3.23;;;1.23;;
14048;SDS011;7099;53.922;10.728;2022-09-09T16:20:31;3.07;;;1.40;;
14048;SDS011;7099;53.922;10.728;2022-09-09T16:24:57;3.17;;;1.30;;
14048;SDS011;7099;53.922;10.728;2022-09-09T16:29:22;2.97;;;1.00;;
14048;SDS011;7099;53.922;10.728;2022-09-09T16:33:48;4.43;;;1.10;;
14048;SDS011;7099;53.922;10.728;2022-09-09T16:38:15;2.07;;;1.30;;
14048;SDS011;7099;53.922;10.728;2022-09-09T16:42:42;2.90;;;1.47;;
14048;SDS011;7099;53.922;10.728;2022-09-09T16:47:07;1.57;;;1.20;;
14048;SDS011;7099;53.922;10.728;2022-09-09T16:51:36;2.47;;;1.40;;
14048;SDS011;7099;53.922;10.728;2022-09-09T16:56:15;4.40;;;2.33;;
14048;SDS011;7099;53.922;10.728;2022-09-09T17:00:43;1.53;;;1.20;;
14048;SDS011;7099;53.922;10.728;2022-09-09T17:05:08;2.80;;;1.73;;
14048;SDS011;7099;53.922;10.728;2022-09-09T17:09:33;2.10;;;1.23;;
14048;SDS011;7099;53.922;10.728;2022-09-09T17:13:59;2.23;;;1.40;;
14048;SDS011;7099;53.922;10.728;2022-09-09T17:18:26;4.47;;;1.40;;
14048;SDS011;7099;53.922;10.728;2022-09-09T17:22:52;3.87;;;1.50;;
14048;SDS011;7099;53.922;10.728;2022-09-09T17:27:17;2.00;;;1.30;;
14048;SDS011;7099;53.922;10.728;2022-09-09T17:31:43;4.57;;;1.67;;
14048;SDS011;7099;53.922;10.728;2022-09-09T17:36:13;3.17;;;1.40;;
14048;SDS011;7099;53.922;10.728;2022-09-09T17:40:46;1.57;;;1.40;;
14048;SDS011;7099;53.922;10.728;2022-09-09T17:45:12;4.75;;;1.52;;
14048;SDS011;7099;53.922;10.728;2022-09-09T17:49:39;3.38;;;1.50;;
14048;SDS011;7099;53.922;10.728;2022-09-09T17:54:05;2.97;;;1.50;;
14048;SDS011;7099;53.922;10.728;2022-09-09T17:58:36;2.53;;;1.30;;
14048;SDS011;7099;53.922;10.728;2022-09-09T18:03:02;3.37;;;1.67;;
14048;SDS011;7099;53.922;10.728;2022-09-09T18:07:28;4.05;;;1.73;;
14048;SDS011;7099;53.922;10.728;2022-09-09T18:11:55;4.75;;;1.52;;
14048;SDS011;7099;53.922;10.728;2022-09-09T18:16:22;3.43;;;1.70;;
14048;SDS011;7099;53.922;10.728;2022-09-09T18:21:12;2.83;;;1.60;;
14048;SDS011;7099;53.922;10.728;2022-09-09T18:25:38;2.27;;;1.60;;
14048;SDS011;7099;53.922;10.728;2022-09-09T18:30:04;3.35;;;1.60;;
14048;SDS011;7099;53.922;10.728;2022-09-09T18:34:30;3.60;;;1.63;;
14048;SDS011;7099;53.922;10.728;2022-09-09T18:38:56;4.77;;;1.73;;
14048;SDS011;7099;53.922;10.728;2022-09-09T18:43:24;2.00;;;1.50;;
14048;SDS011;7099;53.922;10.728;2022-09-09T18:47:49;4.73;;;1.70;;
14048;SDS011;7099;53.922;10.728;2022-09-09T18:52:14;5.15;;;2.08;;
14048;SDS011;7099;53.922;10.728;2022-09-09T18:56:39;6.40;;;1.90;;
14048;SDS011;7099;53.922;10.728;2022-09-09T19:01:12;2.87;;;1.90;;
14048;SDS011;7099;53.922;10.728;2022-09-09T19:05:39;2.50;;;1.80;;
14048;SDS011;7099;53.922;10.728;2022-09-09T19:10:04;3.60;;;1.70;;
14048;SDS011;7099;53.922;10.728;2022-09-09T19:14:30;3.40;;;1.53;;
14048;SDS011;7099;53.922;10.728;2022-09-09T19:18:59;2.93;;;2.00;;
14048;SDS011;7099;53.922;10.728;2022-09-09T19:23:28;4.53;;;2.33;;
14048;SDS011;7099;53.922;10.728;2022-09-09T19:27:54;2.73;;;1.60;;
14048;SDS011;7099;53.922;10.728;2022-09-09T19:32:20;2.40;;;2.13;;
14048;SDS011;7099;53.922;10.728;2022-09-09T19:37:05;3.17;;;2.23;;
14048;SDS011;7099;53.922;10.728;2022-09-09T19:41:31;3.20;;;2.53;;
14048;SDS011;7099;53.922;10.728;2022-09-09T19:45:58;4.20;;;2.30;;
14048;SDS011;7099;53.922;10.728;2022-09-09T19:50:26;2.83;;;2.17;;
14048;SDS011;7099;53.922;10.728;2022-09-09T19:54:52;5.07;;;2.20;;
14048;SDS011;7099;53.922;10.728;2022-09-09T19:59:18;3.90;;;2.57;;
14048;SDS011;7099;53.922;10.728;2022-09-09T20:03:45;4.43;;;2.60;;
14048;SDS011;7099;53.922;10.728;2022-09-09T20:08:13;3.17;;;2.30;;
14048;SDS011;7099;53.922;10.728;2022-09-09T20:12:38;6.55;;;2.03;;
14048;SDS011;7099;53.922;10.728;2022-09-09T20:17:04;4.73;;;2.33;;
14048;SDS011;7099;53.922;10.728;2022-09-09T20:21:34;4.33;;;2.17;;
14048;SDS011;7099;53.922;10.728;2022-09-09T20:26:08;3.13;;;2.30;;
14048;SDS011;7099;53.922;10.728;2022-09-09T20:30:36;4.00;;;2.80;;
14048;SDS011;7099;53.922;10.728;2022-09-09T20:35:01;2.97;;;2.40;;
14048;SDS011;7099;53.922;10.728;2022-09-09T20:39:27;5.03;;;2.50;;
14048;SDS011;7099;53.922;10.728;2022-09-09T20:43:54;2.63;;;2.40;;
14048;SDS011;7099;53.922;10.728;2022-09-09T20:48:25;3.70;;;2.53;;
14048;SDS011;7099;53.922;10.728;2022-09-09T20:52:50;7.43;;;3.33;;
14048;SDS011;7099;53.922;10.728;2022-09-09T20:57:15;2.90;;;2.27;;
14048;SDS011;7099;53.922;10.728;2022-09-09T21:01:45;3.10;;;2.40;;
14048;SDS011;7099;53.922;10.728;2022-09-09T21:06:11;4.20;;;2.70;;
14048;SDS011;7099;53.922;10.728;2022-09-09T21:10:43;4.37;;;2.20;;
14048;SDS011;7099;53.922;10.728;2022-09-09T21:15:11;3.70;;;2.40;;
14048;SDS011;7099;53.922;10.728;2022-09-09T21:19:36;2.57;;;2.10;;
14048;SDS011;7099;53.922;10.728;2022-09-09T21:24:02;3.38;;;2.10;;
14048;SDS011;7099;53.922;10.728;2022-09-09T21:28:27;3.10;;;2.43;;
14048;SDS011;7099;53.922;10.728;2022-09-09T21:32:53;2.40;;;2.20;;
14048;SDS011;7099;53.922;10.728;2022-09-09T21:37:18;7.80;;;2.67;;
14048;SDS011;7099;53.922;10.728;2022-09-09T21:41:43;2.93;;;2.43;;
14048;SDS011;7099;53.922;10.728;2022-09-09T21:46:09;5.30;;;2.30;;
14048;SDS011;7099;53.922;10.728;2022-09-09T21:50:45;2.97;;;2.60;;
14048;SDS011;7099;53.922;10.728;2022-09-09T21:55:11;2.63;;;2.30;;
14048;SDS011;7099;53.922;10.728;2022-09-09T21:59:36;10.13;;;2.50;;
14048;SDS011;7099;53.922;10.728;2022-09-09T22:04:02;9.13;;;2.43;;
14048;SDS011;7099;53.922;10.728;2022-09-09T22:08:27;3.03;;;2.67;;
14048;SDS011;7099;53.922;10.728;2022-09-09T22:12:53;2.50;;;2.30;;
14048;SDS011;7099;53.922;10.728;2022-09-09T22:17:19;2.90;;;2.30;;
14048;SDS011;7099;53.922;10.728;2022-09-09T22:21:44;4.03;;;2.40;;
14048;SDS011;7099;53.922;10.728;2022-09-09T22:26:09;3.93;;;2.20;;
14048;SDS011;7099;53.922;10.728;2022-09-09T22:30:35;7.13;;;2.30;;
14048;SDS011;7099;53.922;10.728;2022-09-09T22:35:03;3.22;;;2.28;;
14048;SDS011;7099;53.922;10.728;2022-09-09T22:39:28;3.50;;;1.90;;
14048;SDS011;7099;53.922;10.728;2022-09-09T22:43:54;2.33;;;2.13;;
14048;SDS011;7099;53.922;10.728;2022-09-09T22:48:20;3.47;;;2.10;;
14048;SDS011;7099;53.922;10.728;2022-09-09T22:52:45;5.07;;;1.97;;
14048;SDS011;7099;53.922;10.728;2022-09-09T22:57:10;4.17;;;2.50;;
14048;SDS011;7099;53.922;10.728;2022-09-09T23:01:37;3.73;;;2.40;;
14048;SDS011;7099;53.922;10.728;2022-09-09T23:06:02;7.13;;;2.47;;
14048;SDS011;7099;53.922;10.728;2022-09-09T23:10:28;5.57;;;2.33;;
14048;SDS011;7099;53.922;10.728;2022-09-09T23:14:56;2.73;;;2.23;;
14048;SDS011;7099;53.922;10.728;2022-09-09T23:19:22;3.20;;;2.20;;
14048;SDS011;7099;53.922;10.728;2022-09-09T23:23:47;4.77;;;2.13;;
14048;SDS011;7099;53.922;10.728;2022-09-09T23:28:16;2.60;;;2.00;;
14048;SDS011;7099;53.922;10.728;2022-09-09T23:32:41;5.07;;;2.40;;
14048;SDS011;7099;53.922;10.728;2022-09-09T23:37:10;2.90;;;2.60;;
14048;SDS011;7099;53.922;10.728;2022-09-09T23:41:36;8.93;;;2.70;;
14048;SDS011;7099;53.922;10.728;2022-09-09T23:46:07;6.13;;;2.83;;
14048;SDS011;7099;53.922;10.728;2022-09-09T23:50:35;5.20;;;2.90;;
14048;SDS011;7099;53.922;10.728;2022-09-09T23:55:00;6.93;;;2.23;;
14048;SDS011;7099;53.922;10.728;2022-09-09T23:59:25;5.87;;;3.00;;
